aviador You're here:

KFLD Decoded Metar

FOND DU LAC in WI, USA
Report Time2017-12-16 18:21:00
UTC Time2017-12-16 18:51:38
Flight Rules mvfr MVFR
Wind080° at 09 kt
W.Decomp.*RWY 09: 9.0 kt HW 0.9 kt LCW
RWY 36: 0.9 kt HW 9.0 kt RCW
W.Rank080° ranks 34
Current wind is above 080° avg. (7.0)
Visibility9999 m
Phenomena:N/A
Clouds:Overcast 010 Hf
Expected CloudBase > 1,200 ft AGL from Temp-Dew spread
Ceiling1,000 ft
Temp-1°C (ISA -14)
Dew Point-4°C (80% RH)
AAT-6.7°C
QNH1014 hPa
Density Alt-948 ft
Elevation787 ft
Report Wrong Elevation
Raw Report
KFLD 161821Z AUTO 08009KT 10SM OVC010 M01/M04 A2993 RMK AO2
T10061039=

Extra information for KFLD:More info

Metar Taf Metar & Taf Last 4 Metars F.Rules Stats Wind Profile Meteogram Temp Stats Airport Information Weather charts Add Link Nearby VenuesMetar ALERT Operation Metar Decoded Social comments

AIRNAV info for KFLD